createdAt,value
2022-09-02T04:45:59.699Z,55.98
2022-09-02T04:52:48.162Z,56.88
2022-09-02T05:03:14.235Z,54.79
2022-09-02T05:48:55.840Z,52.96
2022-09-02T05:52:00.954Z,52.33
2022-09-02T05:55:07.221Z,51.63
2022-09-02T05:58:10.732Z,51.73
2022-09-02T06:01:16.586Z,53.10
2022-09-02T06:04:20.458Z,51.95
2022-09-02T06:07:26.360Z,51.49
2022-09-02T06:10:29.959Z,50.31
2022-09-02T06:13:35.565Z,49.74
2022-09-02T06:16:41.014Z,50.12
2022-09-02T06:19:44.368Z,50.67
2022-09-02T06:22:48.611Z,49.35
2022-09-02T06:25:51.408Z,47.98
2022-09-02T06:28:54.692Z,48.57
2022-09-02T06:31:58.715Z,47.84
2022-09-02T06:35:01.893Z,47.48
2022-09-02T06:38:06.322Z,47.33
2022-09-02T06:41:12.089Z,46.26
2022-09-02T06:44:16.838Z,46.00
2022-09-02T06:47:19.913Z,46.99
2022-09-02T06:50:22.611Z,46.90
2022-09-02T06:53:25.885Z,47.19
2022-09-02T06:56:32.971Z,46.50
2022-09-02T06:59:36.573Z,46.39
2022-09-02T07:02:39.342Z,46.61
2022-09-02T07:05:43.724Z,46.64
2022-09-02T07:08:46.707Z,47.42
2022-09-02T07:11:51.087Z,46.97
2022-09-02T07:14:54.474Z,47.17
2022-09-02T07:18:00.366Z,46.63
2022-09-02T07:21:04.472Z,47.76
2022-09-02T08:33:45.575Z,42.60
2022-09-02T08:36:56.981Z,43.92
2022-09-02T08:40:06.671Z,42.97
2022-09-02T09:39:43.476Z,39.20
2022-09-02T11:46:31.279Z,38.86
2022-09-02T11:50:09.643Z,36.79
2022-09-02T12:00:55.687Z,36.65
2022-09-02T12:04:56.083Z,35.75
2022-09-02T12:22:42.506Z,37.12
2022-09-02T13:43:14.825Z,37.75
2022-09-02T13:49:57.904Z,37.83
2022-09-02T13:56:38.525Z,40.42
2022-09-02T13:59:51.869Z,40.86
2022-09-02T14:03:04.108Z,40.37
2022-09-02T14:06:21.843Z,40.25
2022-09-02T14:09:31.829Z,41.51
2022-09-02T14:12:40.675Z,41.16
2022-09-02T14:15:43.594Z,40.43
2022-09-02T14:19:24.946Z,41.35
2022-09-02T14:22:36.638Z,40.79
2022-09-02T14:25:51.119Z,40.90
2022-09-02T14:29:01.545Z,42.03
2022-09-02T14:32:13.697Z,41.62
2022-09-02T14:35:24.434Z,41.42
2022-09-02T14:38:31.625Z,42.20
2022-09-02T14:41:41.444Z,43.25
2022-09-02T14:44:47.040Z,43.05
